sensor_id;sensor_type;location;lat;lon;timestamp;P1;durP1;ratioP1;P2;durP2;ratioP2
68806;SDS011;55800;54.272;18.558;2022-08-19T00:00:45;22.10;;;14.95;;
68806;SDS011;55800;54.272;18.558;2022-08-19T00:03:15;24.45;;;15.20;;
68806;SDS011;55800;54.272;18.558;2022-08-19T00:05:45;19.60;;;14.95;;
68806;SDS011;55800;54.272;18.558;2022-08-19T00:08:14;23.05;;;15.38;;
68806;SDS011;55800;54.272;18.558;2022-08-19T00:10:43;27.80;;;15.95;;
68806;SDS011;55800;54.272;18.558;2022-08-19T00:13:16;21.23;;;14.95;;
68806;SDS011;55800;54.272;18.558;2022-08-19T00:15:45;25.33;;;15.48;;
68806;SDS011;55800;54.272;18.558;2022-08-19T00:18:14;23.33;;;14.45;;
68806;SDS011;55800;54.272;18.558;2022-08-19T00:20:44;19.83;;;15.20;;
68806;SDS011;55800;54.272;18.558;2022-08-19T00:23:13;20.67;;;13.27;;
68806;SDS011;55800;54.272;18.558;2022-08-19T00:25:42;19.35;;;13.38;;
68806;SDS011;55800;54.272;18.558;2022-08-19T00:28:16;20.10;;;14.32;;
68806;SDS011;55800;54.272;18.558;2022-08-19T00:30:45;19.60;;;13.93;;
68806;SDS011;55800;54.272;18.558;2022-08-19T00:33:14;25.70;;;15.48;;
68806;SDS011;55800;54.272;18.558;2022-08-19T00:35:44;19.48;;;14.27;;
68806;SDS011;55800;54.272;18.558;2022-08-19T00:38:21;21.73;;;14.50;;
68806;SDS011;55800;54.272;18.558;2022-08-19T00:41:03;18.92;;;14.10;;
68806;SDS011;55800;54.272;18.558;2022-08-19T00:43:34;21.38;;;15.50;;
68806;SDS011;55800;54.272;18.558;2022-08-19T00:46:04;20.15;;;13.90;;
68806;SDS011;55800;54.272;18.558;2022-08-19T00:48:33;21.90;;;16.00;;
68806;SDS011;55800;54.272;18.558;2022-08-19T00:51:04;20.52;;;15.55;;
68806;SDS011;55800;54.272;18.558;2022-08-19T00:53:33;19.10;;;13.65;;
68806;SDS011;55800;54.272;18.558;2022-08-19T00:56:03;20.70;;;15.23;;
68806;SDS011;55800;54.272;18.558;2022-08-19T00:58:34;21.83;;;15.30;;
68806;SDS011;55800;54.272;18.558;2022-08-19T01:01:04;20.70;;;13.40;;
68806;SDS011;55800;54.272;18.558;2022-08-19T01:03:34;18.95;;;14.32;;
68806;SDS011;55800;54.272;18.558;2022-08-19T01:06:23;21.17;;;14.45;;
68806;SDS011;55800;54.272;18.558;2022-08-19T01:08:53;19.45;;;13.68;;
68806;SDS011;55800;54.272;18.558;2022-08-19T01:11:22;21.23;;;13.23;;
68806;SDS011;55800;54.272;18.558;2022-08-19T01:13:54;20.38;;;14.30;;
68806;SDS011;55800;54.272;18.558;2022-08-19T01:16:23;17.38;;;14.90;;
68806;SDS011;55800;54.272;18.558;2022-08-19T01:18:55;19.08;;;14.93;;
68806;SDS011;55800;54.272;18.558;2022-08-19T01:21:26;19.88;;;14.55;;
68806;SDS011;55800;54.272;18.558;2022-08-19T01:24:00;26.30;;;16.27;;
68806;SDS011;55800;54.272;18.558;2022-08-19T01:26:30;23.80;;;15.35;;
68806;SDS011;55800;54.272;18.558;2022-08-19T01:29:07;21.23;;;16.02;;
68806;SDS011;55800;54.272;18.558;2022-08-19T01:31:37;21.38;;;16.52;;
68806;SDS011;55800;54.272;18.558;2022-08-19T01:34:07;18.00;;;15.07;;
68806;SDS011;55800;54.272;18.558;2022-08-19T01:36:38;19.63;;;14.35;;
68806;SDS011;55800;54.272;18.558;2022-08-19T01:39:16;22.60;;;15.73;;
68806;SDS011;55800;54.272;18.558;2022-08-19T01:41:48;22.02;;;16.27;;
68806;SDS011;55800;54.272;18.558;2022-08-19T01:44:21;23.13;;;16.08;;
68806;SDS011;55800;54.272;18.558;2022-08-19T01:46:51;23.08;;;15.00;;
68806;SDS011;55800;54.272;18.558;2022-08-19T01:49:21;23.40;;;16.33;;
68806;SDS011;55800;54.272;18.558;2022-08-19T01:51:52;20.75;;;15.15;;
68806;SDS011;55800;54.272;18.558;2022-08-19T01:54:23;19.35;;;14.85;;
68806;SDS011;55800;54.272;18.558;2022-08-19T01:56:56;19.00;;;15.90;;
68806;SDS011;55800;54.272;18.558;2022-08-19T01:59:29;22.10;;;15.50;;
68806;SDS011;55800;54.272;18.558;2022-08-19T02:02:00;21.50;;;15.55;;
68806;SDS011;55800;54.272;18.558;2022-08-19T02:04:29;23.13;;;16.88;;
68806;SDS011;55800;54.272;18.558;2022-08-19T02:06:58;24.45;;;16.20;;
68806;SDS011;55800;54.272;18.558;2022-08-19T02:09:29;21.17;;;15.13;;
68806;SDS011;55800;54.272;18.558;2022-08-19T02:11:59;19.77;;;15.98;;
68806;SDS011;55800;54.272;18.558;2022-08-19T02:14:29;21.33;;;15.73;;
68806;SDS011;55800;54.272;18.558;2022-08-19T02:16:58;21.85;;;16.92;;
68806;SDS011;55800;54.272;18.558;2022-08-19T02:19:28;21.92;;;15.80;;
68806;SDS011;55800;54.272;18.558;2022-08-19T02:21:58;20.85;;;16.33;;
68806;SDS011;55800;54.272;18.558;2022-08-19T02:24:27;22.98;;;16.70;;
68806;SDS011;55800;54.272;18.558;2022-08-19T02:26:58;21.67;;;15.13;;
68806;SDS011;55800;54.272;18.558;2022-08-19T02:29:28;25.48;;;16.35;;
68806;SDS011;55800;54.272;18.558;2022-08-19T02:31:57;21.33;;;16.08;;
68806;SDS011;55800;54.272;18.558;2022-08-19T02:34:26;19.88;;;15.73;;
68806;SDS011;55800;54.272;18.558;2022-08-19T02:36:55;26.58;;;15.73;;
68806;SDS011;55800;54.272;18.558;2022-08-19T02:39:31;22.40;;;14.23;;
68806;SDS011;55800;54.272;18.558;2022-08-19T02:41:59;24.52;;;14.55;;
68806;SDS011;55800;54.272;18.558;2022-08-19T02:44:28;35.42;;;16.83;;
68806;SDS011;55800;54.272;18.558;2022-08-19T02:46:58;22.20;;;15.77;;
68806;SDS011;55800;54.272;18.558;2022-08-19T02:49:27;21.05;;;15.73;;
68806;SDS011;55800;54.272;18.558;2022-08-19T02:52:00;23.45;;;14.93;;
68806;SDS011;55800;54.272;18.558;2022-08-19T02:54:31;21.88;;;14.85;;
68806;SDS011;55800;54.272;18.558;2022-08-19T02:57:01;20.77;;;14.88;;
68806;SDS011;55800;54.272;18.558;2022-08-19T02:59:31;19.15;;;14.85;;
68806;SDS011;55800;54.272;18.558;2022-08-19T03:02:00;23.08;;;16.15;;
68806;SDS011;55800;54.272;18.558;2022-08-19T03:04:29;23.88;;;15.00;;
68806;SDS011;55800;54.272;18.558;2022-08-19T03:06:59;19.23;;;14.30;;
68806;SDS011;55800;54.272;18.558;2022-08-19T03:09:38;18.13;;;14.77;;
68806;SDS011;55800;54.272;18.558;2022-08-19T03:12:09;23.75;;;16.85;;
68806;SDS011;55800;54.272;18.558;2022-08-19T03:14:39;21.05;;;16.77;;
68806;SDS011;55800;54.272;18.558;2022-08-19T03:17:08;21.63;;;15.57;;
68806;SDS011;55800;54.272;18.558;2022-08-19T03:19:39;22.48;;;16.30;;
68806;SDS011;55800;54.272;18.558;2022-08-19T03:22:09;18.92;;;14.02;;
68806;SDS011;55800;54.272;18.558;2022-08-19T03:24:40;19.85;;;13.65;;
68806;SDS011;55800;54.272;18.558;2022-08-19T03:27:10;23.30;;;13.40;;
68806;SDS011;55800;54.272;18.558;2022-08-19T03:29:40;24.50;;;14.25;;
68806;SDS011;55800;54.272;18.558;2022-08-19T03:32:10;41.00;;;17.33;;
68806;SDS011;55800;54.272;18.558;2022-08-19T03:34:59;33.08;;;16.17;;
68806;SDS011;55800;54.272;18.558;2022-08-19T03:37:29;26.95;;;14.43;;
68806;SDS011;55800;54.272;18.558;2022-08-19T03:40:00;21.52;;;14.88;;
68806;SDS011;55800;54.272;18.558;2022-08-19T03:42:31;35.47;;;16.25;;
68806;SDS011;55800;54.272;18.558;2022-08-19T03:45:20;21.80;;;15.95;;
68806;SDS011;55800;54.272;18.558;2022-08-19T03:47:49;21.25;;;15.70;;
68806;SDS011;55800;54.272;18.558;2022-08-19T03:50:19;23.90;;;16.67;;
68806;SDS011;55800;54.272;18.558;2022-08-19T03:52:49;27.88;;;16.30;;
68806;SDS011;55800;54.272;18.558;2022-08-19T03:55:20;22.35;;;15.88;;
68806;SDS011;55800;54.272;18.558;2022-08-19T03:57:50;20.52;;;15.45;;
68806;SDS011;55800;54.272;18.558;2022-08-19T04:00:25;20.90;;;16.02;;
68806;SDS011;55800;54.272;18.558;2022-08-19T04:02:54;21.50;;;15.85;;
68806;SDS011;55800;54.272;18.558;2022-08-19T04:05:26;20.40;;;15.88;;
68806;SDS011;55800;54.272;18.558;2022-08-19T04:07:56;22.92;;;15.73;;
68806;SDS011;55800;54.272;18.558;2022-08-19T04:10:27;26.25;;;18.08;;
68806;SDS011;55800;54.272;18.558;2022-08-19T04:12:57;22.90;;;15.13;;
68806;SDS011;55800;54.272;18.558;2022-08-19T04:15:26;16.90;;;13.63;;
68806;SDS011;55800;54.272;18.558;2022-08-19T04:18:00;19.98;;;13.18;;
68806;SDS011;55800;54.272;18.558;2022-08-19T04:20:29;17.80;;;13.50;;
68806;SDS011;55800;54.272;18.558;2022-08-19T04:22:59;18.95;;;16.10;;
68806;SDS011;55800;54.272;18.558;2022-08-19T04:25:33;21.77;;;14.23;;
68806;SDS011;55800;54.272;18.558;2022-08-19T04:28:04;21.15;;;14.23;;
68806;SDS011;55800;54.272;18.558;2022-08-19T04:30:37;23.58;;;16.52;;
68806;SDS011;55800;54.272;18.558;2022-08-19T04:33:07;26.05;;;15.73;;
68806;SDS011;55800;54.272;18.558;2022-08-19T04:35:38;23.17;;;14.73;;
68806;SDS011;55800;54.272;18.558;2022-08-19T04:38:09;22.40;;;15.40;;
68806;SDS011;55800;54.272;18.558;2022-08-19T04:40:41;18.17;;;14.68;;
68806;SDS011;55800;54.272;18.558;2022-08-19T04:43:29;18.75;;;14.27;;
68806;SDS011;55800;54.272;18.558;2022-08-19T04:46:03;24.40;;;14.88;;
68806;SDS011;55800;54.272;18.558;2022-08-19T04:48:33;25.08;;;15.98;;
68806;SDS011;55800;54.272;18.558;2022-08-19T04:51:15;23.77;;;14.18;;
68806;SDS011;55800;54.272;18.558;2022-08-19T04:53:44;18.35;;;14.05;;
68806;SDS011;55800;54.272;18.558;2022-08-19T04:56:15;29.77;;;16.50;;
68806;SDS011;55800;54.272;18.558;2022-08-19T04:58:48;33.00;;;16.60;;
68806;SDS011;55800;54.272;18.558;2022-08-19T05:01:19;22.70;;;14.65;;
68806;SDS011;55800;54.272;18.558;2022-08-19T05:03:50;29.15;;;15.85;;
68806;SDS011;55800;54.272;18.558;2022-08-19T05:06:20;24.63;;;15.25;;
68806;SDS011;55800;54.272;18.558;2022-08-19T05:08:50;26.83;;;15.85;;
68806;SDS011;55800;54.272;18.558;2022-08-19T05:11:22;26.27;;;16.00;;
68806;SDS011;55800;54.272;18.558;2022-08-19T05:13:53;25.98;;;16.25;;
68806;SDS011;55800;54.272;18.558;2022-08-19T05:16:23;22.50;;;15.48;;
68806;SDS011;55800;54.272;18.558;2022-08-19T05:18:54;19.20;;;15.45;;
68806;SDS011;55800;54.272;18.558;2022-08-19T05:21:41;18.70;;;16.02;;
68806;SDS011;55800;54.272;18.558;2022-08-19T05:24:28;20.23;;;16.27;;
68806;SDS011;55800;54.272;18.558;2022-08-19T05:27:02;27.27;;;17.25;;
68806;SDS011;55800;54.272;18.558;2022-08-19T05:29:33;27.65;;;17.27;;
68806;SDS011;55800;54.272;18.558;2022-08-19T05:32:03;31.60;;;17.98;;
68806;SDS011;55800;54.272;18.558;2022-08-19T05:34:36;24.00;;;19.42;;
68806;SDS011;55800;54.272;18.558;2022-08-19T05:37:06;24.95;;;18.08;;
68806;SDS011;55800;54.272;18.558;2022-08-19T05:39:36;27.92;;;18.42;;
68806;SDS011;55800;54.272;18.558;2022-08-19T05:42:09;30.30;;;20.05;;
68806;SDS011;55800;54.272;18.558;2022-08-19T05:44:40;31.00;;;19.27;;
68806;SDS011;55800;54.272;18.558;2022-08-19T05:47:12;32.78;;;18.67;;
68806;SDS011;55800;54.272;18.558;2022-08-19T05:49:42;25.48;;;17.92;;
68806;SDS011;55800;54.272;18.558;2022-08-19T05:52:12;29.55;;;17.67;;
68806;SDS011;55800;54.272;18.558;2022-08-19T05:54:45;26.30;;;17.40;;
68806;SDS011;55800;54.272;18.558;2022-08-19T05:57:19;31.65;;;17.48;;
68806;SDS011;55800;54.272;18.558;2022-08-19T05:59:48;28.35;;;18.40;;
68806;SDS011;55800;54.272;18.558;2022-08-19T06:02:24;30.85;;;18.20;;
68806;SDS011;55800;54.272;18.558;2022-08-19T06:04:54;30.75;;;17.98;;
68806;SDS011;55800;54.272;18.558;2022-08-19T06:07:23;26.45;;;15.73;;
68806;SDS011;55800;54.272;18.558;2022-08-19T06:09:53;24.15;;;15.90;;
68806;SDS011;55800;54.272;18.558;2022-08-19T06:12:28;28.20;;;18.88;;
68806;SDS011;55800;54.272;18.558;2022-08-19T06:15:01;38.13;;;16.88;;
68806;SDS011;55800;54.272;18.558;2022-08-19T06:17:32;37.40;;;16.15;;
68806;SDS011;55800;54.272;18.558;2022-08-19T06:20:02;32.50;;;15.95;;
68806;SDS011;55800;54.272;18.558;2022-08-19T06:22:36;34.45;;;16.77;;
68806;SDS011;55800;54.272;18.558;2022-08-19T06:25:07;22.33;;;17.02;;
68806;SDS011;55800;54.272;18.558;2022-08-19T06:27:40;25.38;;;17.65;;
68806;SDS011;55800;54.272;18.558;2022-08-19T06:30:30;24.13;;;17.20;;
68806;SDS011;55800;54.272;18.558;2022-08-19T06:32:59;25.20;;;17.35;;
68806;SDS011;55800;54.272;18.558;2022-08-19T06:35:28;25.10;;;16.33;;
68806;SDS011;55800;54.272;18.558;2022-08-19T06:37:58;21.33;;;16.00;;
68806;SDS011;55800;54.272;18.558;2022-08-19T06:40:27;25.50;;;15.77;;
68806;SDS011;55800;54.272;18.558;2022-08-19T06:42:57;21.70;;;14.90;;
68806;SDS011;55800;54.272;18.558;2022-08-19T06:45:32;22.38;;;16.25;;
68806;SDS011;55800;54.272;18.558;2022-08-19T06:48:05;28.30;;;16.45;;
68806;SDS011;55800;54.272;18.558;2022-08-19T06:50:37;21.02;;;15.27;;
68806;SDS011;55800;54.272;18.558;2022-08-19T06:53:06;23.27;;;15.25;;
68806;SDS011;55800;54.272;18.558;2022-08-19T06:55:36;24.05;;;15.60;;
68806;SDS011;55800;54.272;18.558;2022-08-19T06:58:08;22.92;;;15.27;;
68806;SDS011;55800;54.272;18.558;2022-08-19T07:00:37;22.02;;;16.75;;
68806;SDS011;55800;54.272;18.558;2022-08-19T07:03:07;22.80;;;15.40;;
68806;SDS011;55800;54.272;18.558;2022-08-19T07:05:39;21.08;;;16.25;;
68806;SDS011;55800;54.272;18.558;2022-08-19T07:08:12;20.25;;;15.80;;
68806;SDS011;55800;54.272;18.558;2022-08-19T07:10:44;21.60;;;16.48;;
68806;SDS011;55800;54.272;18.558;2022-08-19T07:13:16;22.65;;;16.05;;
68806;SDS011;55800;54.272;18.558;2022-08-19T07:15:46;30.70;;;17.85;;
68806;SDS011;55800;54.272;18.558;2022-08-19T07:18:17;25.90;;;16.92;;
68806;SDS011;55800;54.272;18.558;2022-08-19T07:20:48;22.33;;;15.77;;
68806;SDS011;55800;54.272;18.558;2022-08-19T07:23:18;25.40;;;15.90;;
68806;SDS011;55800;54.272;18.558;2022-08-19T07:25:49;23.92;;;14.70;;
68806;SDS011;55800;54.272;18.558;2022-08-19T07:28:20;20.98;;;13.95;;
68806;SDS011;55800;54.272;18.558;2022-08-19T07:30:53;22.33;;;14.38;;
68806;SDS011;55800;54.272;18.558;2022-08-19T07:33:24;23.08;;;13.55;;
68806;SDS011;55800;54.272;18.558;2022-08-19T07:35:53;24.45;;;14.40;;
68806;SDS011;55800;54.272;18.558;2022-08-19T07:38:23;27.23;;;12.40;;
68806;SDS011;55800;54.272;18.558;2022-08-19T07:40:52;19.02;;;13.68;;
68806;SDS011;55800;54.272;18.558;2022-08-19T07:43:23;19.27;;;14.82;;
68806;SDS011;55800;54.272;18.558;2022-08-19T07:46:01;22.00;;;13.40;;
68806;SDS011;55800;54.272;18.558;2022-08-19T07:48:30;25.58;;;13.65;;
68806;SDS011;55800;54.272;18.558;2022-08-19T07:51:02;21.92;;;12.95;;
68806;SDS011;55800;54.272;18.558;2022-08-19T07:53:35;15.50;;;10.88;;
68806;SDS011;55800;54.272;18.558;2022-08-19T07:56:05;18.35;;;12.65;;
68806;SDS011;55800;54.272;18.558;2022-08-19T07:58:38;18.60;;;12.77;;
68806;SDS011;55800;54.272;18.558;2022-08-19T08:01:09;18.45;;;11.07;;
68806;SDS011;55800;54.272;18.558;2022-08-19T08:03:41;19.67;;;12.60;;
68806;SDS011;55800;54.272;18.558;2022-08-19T08:06:28;18.60;;;11.90;;
68806;SDS011;55800;54.272;18.558;2022-08-19T08:09:15;18.90;;;11.57;;
68806;SDS011;55800;54.272;18.558;2022-08-19T08:11:51;16.02;;;11.48;;
68806;SDS011;55800;54.272;18.558;2022-08-19T08:14:33;20.50;;;10.82;;
68806;SDS011;55800;54.272;18.558;2022-08-19T08:17:10;17.02;;;11.23;;
68806;SDS011;55800;54.272;18.558;2022-08-19T08:19:39;14.85;;;10.18;;
68806;SDS011;55800;54.272;18.558;2022-08-19T08:22:09;14.60;;;10.90;;
68806;SDS011;55800;54.272;18.558;2022-08-19T08:25:03;18.63;;;11.25;;
68806;SDS011;55800;54.272;18.558;2022-08-19T08:27:36;16.60;;;9.70;;
68806;SDS011;55800;54.272;18.558;2022-08-19T08:30:09;14.82;;;10.27;;
68806;SDS011;55800;54.272;18.558;2022-08-19T08:32:40;15.68;;;10.57;;
68806;SDS011;55800;54.272;18.558;2022-08-19T08:35:12;14.02;;;9.15;;
68806;SDS011;55800;54.272;18.558;2022-08-19T08:37:45;13.20;;;10.35;;
68806;SDS011;55800;54.272;18.558;2022-08-19T08:40:18;16.10;;;8.63;;
68806;SDS011;55800;54.272;18.558;2022-08-19T08:42:55;18.63;;;10.80;;
68806;SDS011;55800;54.272;18.558;2022-08-19T08:45:38;12.35;;;9.27;;
68806;SDS011;55800;54.272;18.558;2022-08-19T08:48:20;15.07;;;8.85;;
68806;SDS011;55800;54.272;18.558;2022-08-19T08:51:05;14.77;;;9.60;;
68806;SDS011;55800;54.272;18.558;2022-08-19T08:53:46;12.77;;;8.40;;
68806;SDS011;55800;54.272;18.558;2022-08-19T08:56:22;21.10;;;9.20;;
68806;SDS011;55800;54.272;18.558;2022-08-19T08:58:54;16.48;;;8.73;;
68806;SDS011;55800;54.272;18.558;2022-08-19T09:01:29;10.70;;;7.78;;
68806;SDS011;55800;54.272;18.558;2022-08-19T09:03:58;14.15;;;7.13;;
68806;SDS011;55800;54.272;18.558;2022-08-19T09:06:32;11.70;;;8.25;;
68806;SDS011;55800;54.272;18.558;2022-08-19T09:09:10;16.77;;;8.95;;
68806;SDS011;55800;54.272;18.558;2022-08-19T09:11:50;18.02;;;7.80;;
68806;SDS011;55800;54.272;18.558;2022-08-19T09:14:32;11.57;;;7.75;;
68806;SDS011;55800;54.272;18.558;2022-08-19T09:17:21;15.80;;;8.73;;
68806;SDS011;55800;54.272;18.558;2022-08-19T09:19:55;14.25;;;8.35;;
68806;SDS011;55800;54.272;18.558;2022-08-19T09:22:31;18.73;;;7.95;;
68806;SDS011;55800;54.272;18.558;2022-08-19T09:25:00;28.75;;;10.00;;
68806;SDS011;55800;54.272;18.558;2022-08-19T09:27:35;14.30;;;7.68;;
68806;SDS011;55800;54.272;18.558;2022-08-19T09:30:20;14.65;;;7.72;;
68806;SDS011;55800;54.272;18.558;2022-08-19T09:32:53;14.30;;;7.88;;
68806;SDS011;55800;54.272;18.558;2022-08-19T09:35:25;29.50;;;10.07;;
68806;SDS011;55800;54.272;18.558;2022-08-19T09:37:57;18.15;;;7.38;;
68806;SDS011;55800;54.272;18.558;2022-08-19T09:40:29;12.75;;;8.30;;
68806;SDS011;55800;54.272;18.558;2022-08-19T09:43:04;16.75;;;7.18;;
68806;SDS011;55800;54.272;18.558;2022-08-19T09:45:39;13.23;;;6.80;;
68806;SDS011;55800;54.272;18.558;2022-08-19T09:48:10;15.70;;;8.40;;
68806;SDS011;55800;54.272;18.558;2022-08-19T09:50:49;13.80;;;6.72;;
68806;SDS011;55800;54.272;18.558;2022-08-19T09:53:18;12.68;;;7.03;;
68806;SDS011;55800;54.272;18.558;2022-08-19T09:55:51;14.07;;;6.97;;
68806;SDS011;55800;54.272;18.558;2022-08-19T09:58:22;15.73;;;7.60;;
68806;SDS011;55800;54.272;18.558;2022-08-19T10:00:54;15.43;;;8.18;;
68806;SDS011;55800;54.272;18.558;2022-08-19T10:03:27;24.65;;;7.82;;
68806;SDS011;55800;54.272;18.558;2022-08-19T10:05:58;19.08;;;8.70;;
68806;SDS011;55800;54.272;18.558;2022-08-19T10:08:31;9.80;;;7.05;;
68806;SDS011;55800;54.272;18.558;2022-08-19T10:11:03;10.93;;;6.85;;
68806;SDS011;55800;54.272;18.558;2022-08-19T10:13:53;12.95;;;6.82;;
68806;SDS011;55800;54.272;18.558;2022-08-19T10:16:23;12.88;;;7.22;;
68806;SDS011;55800;54.272;18.558;2022-08-19T10:18:58;13.27;;;7.25;;
68806;SDS011;55800;54.272;18.558;2022-08-19T10:21:31;17.20;;;7.57;;
68806;SDS011;55800;54.272;18.558;2022-08-19T10:24:03;12.68;;;8.07;;
68806;SDS011;55800;54.272;18.558;2022-08-19T10:26:39;11.77;;;7.10;;
68806;SDS011;55800;54.272;18.558;2022-08-19T10:29:21;12.70;;;6.97;;
68806;SDS011;55800;54.272;18.558;2022-08-19T10:31:59;12.60;;;6.67;;
68806;SDS011;55800;54.272;18.558;2022-08-19T10:34:30;8.85;;;7.00;;
68806;SDS011;55800;54.272;18.558;2022-08-19T10:36:59;11.57;;;6.97;;
68806;SDS011;55800;54.272;18.558;2022-08-19T10:39:36;11.40;;;8.18;;
68806;SDS011;55800;54.272;18.558;2022-08-19T10:42:09;14.30;;;8.23;;
68806;SDS011;55800;54.272;18.558;2022-08-19T10:44:40;10.90;;;6.80;;
68806;SDS011;55800;54.272;18.558;2022-08-19T10:47:10;10.55;;;7.60;;
68806;SDS011;55800;54.272;18.558;2022-08-19T10:49:53;8.75;;;6.25;;
68806;SDS011;55800;54.272;18.558;2022-08-19T10:52:40;10.93;;;7.07;;
68806;SDS011;55800;54.272;18.558;2022-08-19T10:55:17;11.85;;;6.75;;
68806;SDS011;55800;54.272;18.558;2022-08-19T10:58:09;9.52;;;6.63;;
68806;SDS011;55800;54.272;18.558;2022-08-19T11:00:40;14.90;;;7.45;;
68806;SDS011;55800;54.272;18.558;2022-08-19T11:03:11;11.98;;;6.07;;
68806;SDS011;55800;54.272;18.558;2022-08-19T11:05:42;8.65;;;6.90;;
68806;SDS011;55800;54.272;18.558;2022-08-19T11:08:11;11.80;;;6.90;;
68806;SDS011;55800;54.272;18.558;2022-08-19T11:10:50;9.90;;;6.32;;
68806;SDS011;55800;54.272;18.558;2022-08-19T11:13:27;12.57;;;7.35;;
68806;SDS011;55800;54.272;18.558;2022-08-19T11:15:58;14.27;;;7.70;;
68806;SDS011;55800;54.272;18.558;2022-08-19T11:18:33;12.27;;;7.30;;
68806;SDS011;55800;54.272;18.558;2022-08-19T11:21:12;15.02;;;7.00;;
68806;SDS011;55800;54.272;18.558;2022-08-19T11:23:46;12.05;;;7.18;;
68806;SDS011;55800;54.272;18.558;2022-08-19T11:26:16;11.02;;;7.85;;
68806;SDS011;55800;54.272;18.558;2022-08-19T11:28:47;10.27;;;7.28;;
68806;SDS011;55800;54.272;18.558;2022-08-19T11:31:20;10.20;;;7.63;;
68806;SDS011;55800;54.272;18.558;2022-08-19T11:33:55;17.35;;;7.30;;
68806;SDS011;55800;54.272;18.558;2022-08-19T11:36:29;9.73;;;7.20;;
68806;SDS011;55800;54.272;18.558;2022-08-19T11:38:59;13.77;;;6.97;;
68806;SDS011;55800;54.272;18.558;2022-08-19T11:41:28;13.30;;;6.95;;
68806;SDS011;55800;54.272;18.558;2022-08-19T11:43:57;12.98;;;7.38;;
68806;SDS011;55800;54.272;18.558;2022-08-19T11:46:27;12.68;;;7.80;;
68806;SDS011;55800;54.272;18.558;2022-08-19T11:48:57;9.70;;;6.80;;
68806;SDS011;55800;54.272;18.558;2022-08-19T11:51:29;11.02;;;7.57;;
68806;SDS011;55800;54.272;18.558;2022-08-19T11:53:59;12.80;;;7.40;;
68806;SDS011;55800;54.272;18.558;2022-08-19T11:56:29;13.60;;;7.40;;
68806;SDS011;55800;54.272;18.558;2022-08-19T11:58:58;13.50;;;7.53;;
68806;SDS011;55800;54.272;18.558;2022-08-19T12:01:29;15.70;;;7.57;;
68806;SDS011;55800;54.272;18.558;2022-08-19T12:03:59;10.88;;;7.25;;
68806;SDS011;55800;54.272;18.558;2022-08-19T12:06:31;15.65;;;6.95;;
68806;SDS011;55800;54.272;18.558;2022-08-19T12:09:03;10.63;;;6.78;;
68806;SDS011;55800;54.272;18.558;2022-08-19T12:11:35;13.43;;;6.78;;
68806;SDS011;55800;54.272;18.558;2022-08-19T12:14:05;13.02;;;6.30;;
68806;SDS011;55800;54.272;18.558;2022-08-19T12:16:40;13.45;;;6.75;;
68806;SDS011;55800;54.272;18.558;2022-08-19T12:19:18;21.88;;;8.50;;
68806;SDS011;55800;54.272;18.558;2022-08-19T12:21:49;19.33;;;7.15;;
68806;SDS011;55800;54.272;18.558;2022-08-19T12:24:22;19.80;;;6.95;;
68806;SDS011;55800;54.272;18.558;2022-08-19T12:26:51;14.23;;;7.32;;
68806;SDS011;55800;54.272;18.558;2022-08-19T12:29:26;14.35;;;6.88;;
68806;SDS011;55800;54.272;18.558;2022-08-19T12:31:56;8.80;;;6.28;;
68806;SDS011;55800;54.272;18.558;2022-08-19T12:34:30;17.40;;;7.68;;
68806;SDS011;55800;54.272;18.558;2022-08-19T12:37:02;14.65;;;6.47;;
68806;SDS011;55800;54.272;18.558;2022-08-19T12:39:34;10.93;;;6.75;;
68806;SDS011;55800;54.272;18.558;2022-08-19T12:42:05;15.32;;;7.38;;
68806;SDS011;55800;54.272;18.558;2022-08-19T12:44:35;11.73;;;6.95;;
68806;SDS011;55800;54.272;18.558;2022-08-19T12:47:08;16.30;;;7.18;;
68806;SDS011;55800;54.272;18.558;2022-08-19T12:49:41;13.77;;;6.88;;
68806;SDS011;55800;54.272;18.558;2022-08-19T12:52:23;12.48;;;8.27;;
68806;SDS011;55800;54.272;18.558;2022-08-19T12:54:54;14.70;;;7.57;;
68806;SDS011;55800;54.272;18.558;2022-08-19T12:57:25;13.15;;;7.88;;
68806;SDS011;55800;54.272;18.558;2022-08-19T12:59:59;12.70;;;7.63;;
68806;SDS011;55800;54.272;18.558;2022-08-19T13:02:35;21.70;;;7.90;;
68806;SDS011;55800;54.272;18.558;2022-08-19T13:05:09;20.92;;;8.50;;
68806;SDS011;55800;54.272;18.558;2022-08-19T13:07:41;13.55;;;7.50;;
68806;SDS011;55800;54.272;18.558;2022-08-19T13:10:12;16.08;;;7.07;;
68806;SDS011;55800;54.272;18.558;2022-08-19T13:12:46;12.32;;;6.20;;
68806;SDS011;55800;54.272;18.558;2022-08-19T13:15:18;10.93;;;6.70;;
68806;SDS011;55800;54.272;18.558;2022-08-19T13:17:50;15.88;;;8.45;;
68806;SDS011;55800;54.272;18.558;2022-08-19T13:20:23;19.15;;;7.80;;
68806;SDS011;55800;54.272;18.558;2022-08-19T13:22:54;11.45;;;6.85;;
68806;SDS011;55800;54.272;18.558;2022-08-19T13:25:24;12.93;;;7.10;;
68806;SDS011;55800;54.272;18.558;2022-08-19T13:27:53;10.90;;;7.25;;
68806;SDS011;55800;54.272;18.558;2022-08-19T13:30:23;10.48;;;6.63;;
68806;SDS011;55800;54.272;18.558;2022-08-19T13:33:10;12.60;;;6.72;;
68806;SDS011;55800;54.272;18.558;2022-08-19T13:35:43;11.80;;;6.10;;
68806;SDS011;55800;54.272;18.558;2022-08-19T13:38:17;10.35;;;7.28;;
68806;SDS011;55800;54.272;18.558;2022-08-19T13:40:49;12.38;;;7.40;;
68806;SDS011;55800;54.272;18.558;2022-08-19T13:43:20;10.02;;;6.70;;
68806;SDS011;55800;54.272;18.558;2022-08-19T13:45:51;13.77;;;6.47;;
68806;SDS011;55800;54.272;18.558;2022-08-19T13:48:24;17.35;;;7.43;;
68806;SDS011;55800;54.272;18.558;2022-08-19T13:50:55;11.05;;;6.78;;
68806;SDS011;55800;54.272;18.558;2022-08-19T13:53:26;12.48;;;6.55;;
68806;SDS011;55800;54.272;18.558;2022-08-19T13:55:56;12.95;;;6.85;;
68806;SDS011;55800;54.272;18.558;2022-08-19T13:58:26;18.17;;;7.20;;
68806;SDS011;55800;54.272;18.558;2022-08-19T14:00:55;12.43;;;6.70;;
68806;SDS011;55800;54.272;18.558;2022-08-19T14:03:25;12.10;;;6.55;;
68806;SDS011;55800;54.272;18.558;2022-08-19T14:05:55;13.25;;;7.32;;
68806;SDS011;55800;54.272;18.558;2022-08-19T14:08:24;9.18;;;6.28;;
68806;SDS011;55800;54.272;18.558;2022-08-19T14:10:57;14.27;;;6.80;;
68806;SDS011;55800;54.272;18.558;2022-08-19T14:13:32;9.68;;;6.82;;
68806;SDS011;55800;54.272;18.558;2022-08-19T14:16:05;10.35;;;6.25;;
68806;SDS011;55800;54.272;18.558;2022-08-19T14:18:36;10.25;;;7.20;;
68806;SDS011;55800;54.272;18.558;2022-08-19T14:21:06;11.27;;;6.88;;
68806;SDS011;55800;54.272;18.558;2022-08-19T14:23:43;18.35;;;7.68;;
68806;SDS011;55800;54.272;18.558;2022-08-19T14:26:14;13.75;;;6.47;;
68806;SDS011;55800;54.272;18.558;2022-08-19T14:28:45;13.88;;;7.05;;
68806;SDS011;55800;54.272;18.558;2022-08-19T14:31:15;13.20;;;6.32;;
68806;SDS011;55800;54.272;18.558;2022-08-19T14:33:46;12.75;;;7.15;;
68806;SDS011;55800;54.272;18.558;2022-08-19T14:36:16;10.73;;;7.10;;
68806;SDS011;55800;54.272;18.558;2022-08-19T14:38:47;14.75;;;6.70;;
68806;SDS011;55800;54.272;18.558;2022-08-19T14:41:17;13.32;;;7.00;;
68806;SDS011;55800;54.272;18.558;2022-08-19T14:43:50;13.48;;;6.15;;